Time;durP1;ratioP1;P1;durP2;ratioP2;P2;SDS_P1;SDS_P2;PMS_P1;PMS_P2;Temp;Humidity;BMP_temperature;BMP_pressure;BME280_temperature;BME280_humidity;BME280_pressure;Samples;Min_cycle;Max_cycle;Signal;HPM_P1;HPM_P2
2022/12/07 00:02:19;;;;;;;2.90;2.80;;;16.90;66.80;;;;;;5114526;27;43611;-70
2022/12/07 00:04:49;;;;;;;3.17;3.07;;;16.90;66.70;;;;;;5119755;27;43529;-69
2022/12/07 00:07:17;;;;;;;3.17;3.07;;;16.90;66.70;;;;;;5107836;27;45672;-69
2022/12/07 00:09:46;;;;;;;3.07;2.97;;;16.90;66.70;;;;;;5123027;27;44343;-69
2022/12/07 00:12:14;;;;;;;3.10;3.00;;;16.90;66.80;;;;;;5112620;27;43486;-69
2022/12/07 00:14:42;;;;;;;3.10;3.00;;;16.90;66.70;;;;;;5112404;27;43472;-72
2022/12/07 00:17:10;;;;;;;2.90;2.80;;;16.90;67.10;;;;;;5120530;27;43925;-72
2022/12/07 00:19:39;;;;;;;2.97;2.87;;;16.90;67.00;;;;;;5112159;27;44349;-69
2022/12/07 00:22:07;;;;;;;3.07;2.97;;;17.00;66.70;;;;;;5112990;27;43504;-71
2022/12/07 00:24:35;;;;;;;3.23;3.13;;;17.10;66.30;;;;;;5119445;27;43481;-68
2022/12/07 00:27:02;;;;;;;2.83;2.73;;;17.10;66.20;;;;;;5116499;27;43685;-69
2022/12/07 00:29:30;;;;;;;3.03;2.93;;;17.10;66.30;;;;;;5111907;27;44869;-70
2022/12/07 00:31:58;;;;;;;3.10;3.00;;;17.00;66.40;;;;;;5120973;27;43449;-69
2022/12/07 00:34:26;;;;;;;2.77;2.67;;;17.00;66.50;;;;;;5110852;27;43558;-68
2022/12/07 00:36:56;;;;;;;2.90;2.80;;;17.00;66.40;;;;;;5120179;27;43806;-73
2022/12/07 00:39:24;;;;;;;2.80;2.80;;;17.00;66.40;;;;;;5116953;27;44555;-72
2022/12/07 00:41:52;;;;;;;2.87;2.77;;;17.00;66.50;;;;;;5116302;27;43563;-70
2022/12/07 00:44:20;;;;;;;2.87;2.77;;;17.00;67.20;;;;;;5110378;27;43455;-72
2022/12/07 00:46:47;;;;;;;3.10;3.00;;;16.90;66.50;;;;;;5116822;27;43596;-68
2022/12/07 00:49:15;;;;;;;3.10;3.00;;;16.90;66.90;;;;;;5126375;27;43429;-69
2022/12/07 00:51:43;;;;;;;2.57;2.57;;;16.90;66.70;;;;;;5113893;27;43496;-69
2022/12/07 00:54:13;;;;;;;2.57;2.57;;;16.90;66.70;;;;;;5122478;27;43487;-73
2022/12/07 00:56:41;;;;;;;2.80;2.80;;;16.90;66.60;;;;;;5122619;27;45949;-69
2022/12/07 00:59:12;;;;;;;2.77;2.70;;;16.90;66.60;;;;;;5113072;27;43417;-73
2022/12/07 01:01:40;;;;;;;2.53;2.53;;;16.90;66.70;;;;;;5127904;27;44451;-69
2022/12/07 01:04:09;;;;;;;3.03;2.93;;;16.90;66.80;;;;;;5106452;27;43561;-75
2022/12/07 01:06:37;;;;;;;2.50;2.50;;;16.90;66.70;;;;;;5117424;27;45744;-69
2022/12/07 01:09:06;;;;;;;2.50;2.50;;;16.90;66.70;;;;;;5105565;27;43499;-70
2022/12/07 01:11:35;;;;;;;2.67;2.67;;;16.90;66.70;;;;;;5117268;27;43779;-70
2022/12/07 01:14:03;;;;;;;2.67;2.57;;;16.90;66.70;;;;;;5118262;27;45428;-72
2022/12/07 01:16:32;;;;;;;2.73;2.63;;;16.90;66.80;;;;;;5115969;27;43906;-72
2022/12/07 01:19:00;;;;;;;2.70;2.70;;;16.90;67.50;;;;;;5114358;27;44617;-74
2022/12/07 01:21:29;;;;;;;2.50;2.50;;;16.90;67.00;;;;;;5113679;27;43541;-70
2022/12/07 01:23:57;;;;;;;2.73;2.70;;;16.90;67.00;;;;;;5114280;27;44747;-69
2022/12/07 01:26:26;;;;;;;2.53;2.53;;;17.00;66.70;;;;;;5116885;27;43929;-70
2022/12/07 01:28:55;;;;;;;2.80;2.70;;;17.10;66.20;;;;;;5116376;27;43456;-69
2022/12/07 01:31:24;;;;;;;2.90;2.80;;;17.20;65.90;;;;;;5113471;27;44479;-69
2022/12/07 01:33:53;;;;;;;2.50;2.50;;;17.20;65.90;;;;;;5113232;27;43565;-70
2022/12/07 01:36:22;;;;;;;2.57;2.57;;;17.10;65.90;;;;;;5115727;27;46071;-68
2022/12/07 01:38:52;;;;;;;2.93;2.83;;;17.10;66.10;;;;;;5110970;27;43421;-73
2022/12/07 01:41:20;;;;;;;2.60;2.60;;;17.10;65.90;;;;;;5115590;27;44690;-71
2022/12/07 01:44:19;;;;;;;2.60;2.50;;;17.10;66.00;;;;;;5114058;27;43947;-68
2022/12/07 01:46:48;;;;;;;2.53;2.43;;;17.10;66.20;;;;;;5112425;27;45601;-71
2022/12/07 01:49:19;;;;;;;2.40;2.40;;;17.00;66.30;;;;;;5120107;27;43483;-70
2022/12/07 01:51:47;;;;;;;2.70;2.60;;;17.00;66.30;;;;;;5116661;27;44391;-73
2022/12/07 01:54:15;;;;;;;2.60;2.50;;;17.00;66.60;;;;;;5132510;27;44150;-72
2022/12/07 01:56:44;;;;;;;2.47;2.47;;;16.90;66.50;;;;;;5112882;27;43807;-70
2022/12/07 01:59:13;;;;;;;2.63;2.60;;;17.00;66.60;;;;;;5122046;27;43453;-69
2022/12/07 02:01:41;;;;;;;2.80;2.80;;;16.90;66.50;;;;;;5122183;27;43484;-70
2022/12/07 02:04:09;;;;;;;2.60;2.60;;;16.90;66.50;;;;;;5111245;27;43579;-73
2022/12/07 02:06:39;;;;;;;2.50;2.50;;;16.90;66.60;;;;;;5121283;27;45685;-72
2022/12/07 02:09:07;;;;;;;2.73;2.63;;;16.90;66.80;;;;;;5109825;27;43852;-70
2022/12/07 02:11:35;;;;;;;2.77;2.70;;;16.90;67.00;;;;;;5114449;27;43996;-69
2022/12/07 02:14:03;;;;;;;2.90;2.80;;;17.00;66.70;;;;;;5120400;27;43593;-72
2022/12/07 02:16:35;;;;;;;2.30;2.30;;;17.10;66.30;;;;;;5108357;27;43598;-71
2022/12/07 02:19:15;;;;;;;2.60;2.60;;;17.10;66.10;;;;;;5118471;27;44332;-69
2022/12/07 02:21:46;;;;;;;2.70;2.70;;;17.10;66.00;;;;;;5110161;27;43449;-69
2022/12/07 02:24:31;;;;;;;2.87;2.77;;;17.10;66.10;;;;;;5102741;27;43478;-70
2022/12/07 02:27:29;;;;;;;2.83;2.73;;;17.00;66.40;;;;;;5109583;27;45508;-70
2022/12/07 02:30:01;;;;;;;2.63;2.53;;;17.00;66.20;;;;;;5119941;27;43608;-68
2022/12/07 02:32:33;;;;;;;2.53;2.53;;;17.00;66.20;;;;;;5118385;27;43385;-72
2022/12/07 02:35:05;;;;;;;2.30;2.30;;;17.00;66.30;;;;;;5113456;27;43567;-70
2022/12/07 02:37:36;;;;;;;2.47;2.47;;;17.00;66.40;;;;;;5106411;27;45842;-71
2022/12/07 02:40:06;;;;;;;2.60;2.50;;;16.90;66.40;;;;;;5117803;27;43450;-71
2022/12/07 02:42:37;;;;;;;2.77;2.67;;;16.90;66.50;;;;;;5118155;27;43523;-69
2022/12/07 02:45:07;;;;;;;2.43;2.43;;;16.90;66.50;;;;;;5127309;27;43484;-71
2022/12/07 02:47:35;;;;;;;2.60;2.50;;;16.90;66.40;;;;;;5125030;27;46120;-69
2022/12/07 02:50:04;;;;;;;2.50;2.50;;;16.90;66.40;;;;;;5122524;27;44290;-69
2022/12/07 02:52:32;;;;;;;2.40;2.40;;;16.90;66.50;;;;;;5140719;27;43384;-71
2022/12/07 02:55:00;;;;;;;2.60;2.50;;;16.90;66.60;;;;;;5136893;27;43465;-68
2022/12/07 02:57:36;;;;;;;2.37;2.37;;;16.90;66.80;;;;;;5138583;27;43923;-71
2022/12/07 03:00:07;;;;;;;2.73;2.70;;;16.90;66.60;;;;;;5131406;27;43399;-70
2022/12/07 03:02:42;;;;;;;2.10;2.10;;;16.90;66.70;;;;;;5121848;27;43426;-69
2022/12/07 03:05:18;;;;;;;2.33;2.33;;;16.90;66.60;;;;;;5129405;27;43594;-69
2022/12/07 03:07:50;;;;;;;2.30;2.30;;;16.90;66.60;;;;;;5126641;27;43899;-70
2022/12/07 03:10:20;;;;;;;2.63;2.63;;;16.90;66.60;;;;;;5126096;27;45050;-70
2022/12/07 03:12:52;;;;;;;2.60;2.60;;;16.90;66.90;;;;;;5113991;27;43752;-69
2022/12/07 03:15:24;;;;;;;2.53;2.53;;;16.90;66.90;;;;;;5122515;27;43382;-75
2022/12/07 03:17:54;;;;;;;2.20;2.20;;;17.00;66.60;;;;;;5128013;27;46046;-71
2022/12/07 03:20:22;;;;;;;2.90;2.80;;;17.10;66.10;;;;;;5123353;27;43496;-69
2022/12/07 03:22:50;;;;;;;2.40;2.40;;;17.10;65.60;;;;;;5122309;27;43431;-71
2022/12/07 03:25:18;;;;;;;2.53;2.53;;;17.20;65.80;;;;;;5117332;27;43513;-68
2022/12/07 03:27:49;;;;;;;2.60;2.50;;;17.10;65.90;;;;;;5119034;27;45991;-68
2022/12/07 03:30:19;;;;;;;2.33;2.30;;;17.10;66.00;;;;;;5113712;27;44352;-70
2022/12/07 03:32:50;;;;;;;2.47;2.40;;;17.10;65.90;;;;;;5122182;27;43433;-69
2022/12/07 03:35:19;;;;;;;2.30;2.30;;;17.10;66.00;;;;;;5122113;27;43520;-69
2022/12/07 03:37:49;;;;;;;2.50;2.50;;;17.00;65.90;;;;;;5123577;27;43950;-73
2022/12/07 03:40:20;;;;;;;2.30;2.30;;;17.00;66.10;;;;;;5111990;27;44390;-69
2022/12/07 03:42:48;;;;;;;2.40;2.40;;;17.00;66.20;;;;;;5113697;27;43639;-69
2022/12/07 03:45:16;;;;;;;2.60;2.50;;;16.90;67.10;;;;;;5127610;27;43507;-69
2022/12/07 03:47:48;;;;;;;2.60;2.60;;;16.90;66.30;;;;;;5112683;27;43764;-68
2022/12/07 03:50:18;;;;;;;2.97;2.87;;;16.90;66.40;;;;;;5110702;27;43508;-72
2022/12/07 03:52:47;;;;;;;2.50;2.50;;;16.90;66.40;;;;;;5116599;27;43436;-69
2022/12/07 03:55:17;;;;;;;2.50;2.50;;;16.90;66.40;;;;;;5121398;27;43482;-69
2022/12/07 03:57:45;;;;;;;2.43;2.43;;;16.90;66.50;;;;;;5107546;27;46123;-70
2022/12/07 04:00:14;;;;;;;2.67;2.57;;;16.90;66.70;;;;;;5117814;27;43521;-70
2022/12/07 04:02:42;;;;;;;2.57;2.57;;;16.90;66.50;;;;;;5120666;27;43444;-69
2022/12/07 04:05:12;;;;;;;2.43;2.43;;;16.90;66.50;;;;;;5108945;27;43554;-72
2022/12/07 04:07:40;;;;;;;2.30;2.30;;;16.90;66.40;;;;;;5108755;27;46024;-75
2022/12/07 04:10:09;;;;;;;2.50;2.50;;;16.90;66.60;;;;;;5117469;27;43349;-69
2022/12/07 04:12:36;;;;;;;2.60;2.60;;;16.90;66.60;;;;;;5114881;27;43505;-69
2022/12/07 04:15:05;;;;;;;2.50;2.50;;;16.90;66.80;;;;;;5116549;27;43501;-69
2022/12/07 04:17:33;;;;;;;3.00;2.90;;;16.90;66.90;;;;;;5112988;27;43591;-71
2022/12/07 04:20:01;;;;;;;2.80;2.70;;;16.90;66.60;;;;;;5111428;27;44726;-69
2022/12/07 04:22:31;;;;;;;2.83;2.77;;;17.10;66.30;;;;;;5113176;27;43429;-70
2022/12/07 04:24:59;;;;;;;2.70;2.70;;;17.10;65.80;;;;;;5116260;27;43826;-75
2022/12/07 04:27:27;;;;;;;2.33;2.33;;;17.10;65.70;;;;;;5119966;27;43841;-68
2022/12/07 04:29:55;;;;;;;2.73;2.63;;;17.10;65.90;;;;;;5118896;27;43452;-69
2022/12/07 04:32:23;;;;;;;2.80;2.70;;;17.10;66.20;;;;;;5119782;27;43832;-73
2022/12/07 04:34:51;;;;;;;2.87;2.77;;;17.00;66.00;;;;;;5108381;27;43434;-69
2022/12/07 04:37:22;;;;;;;2.50;2.40;;;17.00;66.10;;;;;;5114388;27;45369;-69
2022/12/07 04:39:52;;;;;;;2.47;2.47;;;17.00;66.10;;;;;;5113744;27;43428;-69
2022/12/07 04:42:19;;;;;;;2.70;2.60;;;17.00;66.20;;;;;;5125876;27;43932;-70
2022/12/07 04:44:47;;;;;;;2.83;2.73;;;16.90;66.20;;;;;;5121702;27;43652;-68
2022/12/07 04:47:15;;;;;;;2.77;2.67;;;16.90;66.40;;;;;;5111285;27;43607;-71
2022/12/07 04:49:44;;;;;;;3.10;3.00;;;16.90;66.30;;;;;;5120677;27;43481;-70
2022/12/07 04:52:11;;;;;;;3.80;3.50;;;16.90;66.20;;;;;;5109060;27;43474;-69
2022/12/07 04:54:39;;;;;;;3.77;3.13;;;16.90;66.30;;;;;;5120964;27;43422;-72
2022/12/07 04:57:09;;;;;;;5.13;3.80;;;16.90;66.20;;;;;;5119422;27;44468;-71
2022/12/07 04:59:36;;;;;;;5.10;4.13;;;16.90;66.20;;;;;;5114006;27;43488;-71
2022/12/07 05:02:12;;;;;;;6.13;4.37;;;16.90;66.30;;;;;;5118391;27;43456;-72
2022/12/07 05:04:40;;;;;;;9.47;5.20;;;16.90;66.60;;;;;;5125282;27;43392;-75
2022/12/07 05:07:08;;;;;;;7.43;5.00;;;17.00;66.40;;;;;;5117099;27;43834;-69
2022/12/07 05:09:35;;;;;;;6.83;5.37;;;17.10;66.10;;;;;;5119847;27;43425;-69
2022/12/07 05:12:04;;;;;;;7.00;5.07;;;17.10;65.60;;;;;;5116500;27;43563;-71
2022/12/07 05:14:33;;;;;;;8.43;5.47;;;17.10;65.70;;;;;;5117138;27;44609;-69
2022/12/07 05:17:01;;;;;;;8.43;5.43;;;17.10;65.80;;;;;;5112098;27;44360;-69
2022/12/07 05:19:29;;;;;;;9.03;5.53;;;17.10;65.90;;;;;;5114204;27;43508;-68
2022/12/07 05:21:57;;;;;;;11.97;6.07;;;17.00;65.90;;;;;;5115058;27;43449;-69
2022/12/07 05:24:24;;;;;;;8.83;6.03;;;17.00;65.90;;;;;;5111979;27;44091;-69
2022/12/07 05:26:52;;;;;;;11.20;6.30;;;17.00;66.00;;;;;;5112209;27;45789;-68
2022/12/07 05:29:20;;;;;;;16.17;7.07;;;17.00;66.00;;;;;;5113624;27;43472;-75
2022/12/07 05:31:50;;;;;;;12.33;6.80;;;17.00;66.00;;;;;;5122435;27;43480;-68
2022/12/07 05:34:18;;;;;;;18.10;7.87;;;17.00;66.10;;;;;;5111281;27;43435;-70
2022/12/07 05:36:46;;;;;;;16.13;7.90;;;17.00;66.10;;;;;;5119319;27;43601;-70
2022/12/07 05:39:13;;;;;;;13.63;6.80;;;17.00;66.20;;;;;;5110621;27;44303;-69
2022/12/07 05:44:27;;;;;;;14.40;7.37;;;17.00;66.20;;;;;;5112986;27;43648;-70
2022/12/07 05:46:56;;;;;;;12.17;7.47;;;17.00;66.10;;;;;;5119534;27;43830;-68
2022/12/07 05:49:24;;;;;;;16.80;7.40;;;17.00;66.20;;;;;;5120031;27;44652;-68
2022/12/07 05:51:52;;;;;;;15.30;7.67;;;16.90;66.50;;;;;;5108639;27;43555;-68
2022/12/07 05:54:20;;;;;;;13.37;8.43;;;17.00;66.50;;;;;;5114260;27;43390;-68
2022/12/07 05:56:48;;;;;;;15.17;7.93;;;17.10;66.10;;;;;;5104691;27;43910;-74
2022/12/07 05:59:27;;;;;;;15.43;7.87;;;17.10;65.60;;;;;;5111660;27;43404;-70
2022/12/07 06:01:58;;;;;;;12.83;8.00;;;17.10;66.20;;;;;;5110662;27;43500;-71
2022/12/07 06:04:26;;;;;;;15.57;7.67;;;17.10;65.60;;;;;;5118677;27;43534;-69
2022/12/07 06:06:54;;;;;;;14.67;7.63;;;17.10;65.90;;;;;;5118040;27;43594;-70
2022/12/07 06:09:23;;;;;;;14.80;7.90;;;17.10;65.70;;;;;;5116227;27;43985;-69
2022/12/07 06:14:39;;;;;;;16.60;7.50;;;17.10;65.90;;;;;;5114473;27;43584;-70
2022/12/07 06:17:08;;;;;;;12.23;6.93;;;17.00;65.80;;;;;;5112721;27;43776;-72
2022/12/07 06:19:36;;;;;;;13.03;7.67;;;17.00;66.00;;;;;;5125721;27;43482;-70
2022/12/07 06:22:04;;;;;;;11.17;7.13;;;17.00;66.10;;;;;;5121964;27;43435;-68
2022/12/07 06:24:32;;;;;;;12.80;7.30;;;17.00;66.20;;;;;;5114272;27;43451;-70
2022/12/07 06:27:00;;;;;;;12.70;7.37;;;17.00;66.20;;;;;;5119116;27;46367;-70
2022/12/07 06:29:28;;;;;;;13.30;7.43;;;17.00;66.20;;;;;;5113892;27;43429;-68
2022/12/07 06:31:56;;;;;;;13.47;8.13;;;17.00;66.10;;;;;;5112107;27;43497;-69
2022/12/07 06:34:27;;;;;;;8.97;6.57;;;16.90;66.10;;;;;;5113260;27;43544;-68
2022/12/07 06:36:55;;;;;;;11.03;7.07;;;16.90;66.10;;;;;;5122978;27;43844;-69
2022/12/07 06:39:24;;;;;;;11.87;7.30;;;16.90;66.40;;;;;;5113334;27;43452;-69
2022/12/07 06:41:52;;;;;;;11.97;6.90;;;16.90;66.20;;;;;;5110538;27;43461;-68
2022/12/07 06:44:21;;;;;;;11.23;6.60;;;16.90;66.20;;;;;;5122332;27;43456;-73
2022/12/07 06:46:49;;;;;;;12.00;7.43;;;17.00;66.20;;;;;;5129270;27;43840;-68
2022/12/07 06:49:17;;;;;;;11.10;6.60;;;16.90;66.10;;;;;;5114723;27;43520;-70
2022/12/07 06:51:46;;;;;;;11.07;7.00;;;17.00;66.30;;;;;;5114992;27;43502;-69
2022/12/07 06:54:15;;;;;;;9.67;6.80;;;16.90;66.20;;;;;;5113961;27;43482;-70
2022/12/07 06:56:43;;;;;;;12.23;7.27;;;17.00;66.60;;;;;;5105335;27;44145;-71
2022/12/07 06:59:11;;;;;;;11.93;6.70;;;17.00;66.40;;;;;;5119730;27;43504;-71
2022/12/07 07:01:39;;;;;;;11.00;6.93;;;17.10;66.00;;;;;;5125743;27;43391;-71
2022/12/07 07:04:07;;;;;;;9.33;6.80;;;17.20;65.50;;;;;;5106493;27;43391;-73
2022/12/07 07:06:35;;;;;;;10.43;6.57;;;17.20;65.40;;;;;;5118136;27;43914;-69
2022/12/07 07:09:04;;;;;;;10.20;6.60;;;17.20;65.50;;;;;;5120284;27;43421;-69
2022/12/07 07:11:32;;;;;;;8.73;6.40;;;17.10;65.80;;;;;;5125485;27;43477;-72
2022/12/07 07:14:02;;;;;;;9.03;6.50;;;17.10;65.60;;;;;;5114387;27;43477;-69
2022/12/07 07:16:31;;;;;;;8.60;5.70;;;17.10;65.70;;;;;;5114369;27;43688;-73
2022/12/07 07:18:59;;;;;;;8.90;6.17;;;17.10;65.90;;;;;;5108626;27;43440;-69
2022/12/07 07:21:27;;;;;;;8.10;5.83;;;17.10;65.90;;;;;;5116554;27;43560;-71
2022/12/07 07:23:56;;;;;;;7.97;6.17;;;17.00;65.90;;;;;;5109443;27;43468;-69
2022/12/07 07:26:25;;;;;;;10.10;6.43;;;17.00;66.20;;;;;;5110761;27;43847;-71
2022/12/07 07:28:53;;;;;;;10.83;6.50;;;17.00;66.10;;;;;;5123681;27;43876;-69
2022/12/07 07:31:21;;;;;;;7.40;6.07;;;17.00;66.10;;;;;;5114482;27;44627;-72
2022/12/07 07:33:49;;;;;;;6.83;5.83;;;17.00;66.20;;;;;;5113899;27;43519;-68
2022/12/07 07:36:17;;;;;;;9.00;6.00;;;17.00;66.20;;;;;;5120093;27;43625;-72
2022/12/07 07:38:45;;;;;;;8.27;6.30;;;17.00;66.20;;;;;;5120571;27;43477;-70
2022/12/07 07:41:13;;;;;;;8.33;6.00;;;16.90;66.20;;;;;;5119559;27;43995;-70
2022/12/07 07:43:42;;;;;;;7.57;5.93;;;16.90;66.70;;;;;;5118191;27;43564;-75
2022/12/07 07:46:10;;;;;;;7.10;5.87;;;17.00;66.50;;;;;;5112656;27;44722;-69
2022/12/07 07:48:38;;;;;;;7.03;5.47;;;17.00;66.00;;;;;;5118893;27;43477;-70
2022/12/07 07:51:07;;;;;;;6.37;5.33;;;17.10;65.90;;;;;;5111271;27;43461;-70
2022/12/07 07:53:35;;;;;;;7.60;5.70;;;17.10;65.90;;;;;;5126291;27;43351;-70
2022/12/07 07:56:03;;;;;;;6.43;5.83;;;17.00;65.90;;;;;;5118486;27;43737;-70
2022/12/07 07:58:31;;;;;;;6.93;5.50;;;17.00;66.10;;;;;;5114364;27;43604;-69
2022/12/07 08:01:06;;;;;;;6.73;5.90;;;17.00;66.10;;;;;;5117895;27;43524;-69
2022/12/07 08:03:34;;;;;;;7.03;5.80;;;17.00;66.10;;;;;;5114528;27;44214;-69
2022/12/07 08:06:02;;;;;;;5.90;5.33;;;17.00;66.10;;;;;;5114424;27;45894;-71
2022/12/07 08:08:30;;;;;;;6.60;5.80;;;17.00;66.10;;;;;;5120229;27;44070;-71
2022/12/07 08:11:00;;;;;;;5.90;5.40;;;17.00;66.20;;;;;;5121477;27;43520;-69
2022/12/07 08:13:28;;;;;;;6.13;5.53;;;17.00;66.20;;;;;;5109587;27;43512;-69
2022/12/07 08:15:58;;;;;;;6.07;5.57;;;16.90;66.50;;;;;;5121905;27;43598;-69
2022/12/07 08:18:28;;;;;;;6.17;5.57;;;17.00;66.40;;;;;;5125609;27;43480;-68
2022/12/07 08:21:00;;;;;;;6.53;5.57;;;17.10;66.10;;;;;;5124904;27;43471;-69
2022/12/07 08:23:28;;;;;;;6.13;5.53;;;17.10;65.90;;;;;;5132618;27;43475;-69
2022/12/07 08:26:07;;;;;;;6.07;5.40;;;17.10;65.90;;;;;;5130613;27;45313;-69
2022/12/07 08:28:35;;;;;;;5.40;5.00;;;17.00;65.80;;;;;;5138543;27;43565;-69
2022/12/07 08:31:03;;;;;;;6.17;5.17;;;17.00;66.10;;;;;;5127855;27;43395;-68
2022/12/07 08:33:33;;;;;;;5.00;4.63;;;17.00;66.10;;;;;;5137356;27;43419;-72
2022/12/07 08:36:01;;;;;;;5.67;5.03;;;17.00;66.10;;;;;;5136859;27;43920;-69
2022/12/07 08:38:29;;;;;;;5.60;4.97;;;17.00;66.20;;;;;;5131093;27;44025;-69
2022/12/07 08:40:59;;;;;;;5.93;5.13;;;17.00;66.10;;;;;;5134604;27;43453;-68
2022/12/07 08:43:27;;;;;;;6.10;5.50;;;17.00;66.20;;;;;;5130762;27;43435;-69
2022/12/07 08:46:00;;;;;;;5.43;5.00;;;17.00;66.30;;;;;;5127961;27;44284;-70
2022/12/07 08:48:28;;;;;;;6.63;5.63;;;16.90;66.70;;;;;;5132149;27;43414;-69
2022/12/07 08:50:57;;;;;;;6.13;5.13;;;17.00;66.50;;;;;;5131752;27;43384;-69
2022/12/07 08:53:25;;;;;;;5.33;4.87;;;17.00;66.10;;;;;;5137197;27;43553;-69
2022/12/07 08:55:53;;;;;;;6.70;5.03;;;17.10;65.90;;;;;;5128961;27;46042;-69
2022/12/07 08:58:21;;;;;;;4.93;4.53;;;17.10;66.00;;;;;;5121968;27;43480;-69
2022/12/07 09:00:49;;;;;;;5.77;5.20;;;17.00;66.00;;;;;;5126130;27;43480;-70
2022/12/07 09:03:17;;;;;;;5.10;4.77;;;17.00;66.20;;;;;;5117559;27;43796;-69
2022/12/07 09:05:45;;;;;;;5.80;5.20;;;17.00;66.10;;;;;;5117952;27;43732;-68
2022/12/07 09:08:14;;;;;;;5.20;4.73;;;17.00;66.20;;;;;;5111269;27;45159;-69
2022/12/07 09:10:43;;;;;;;5.47;4.97;;;17.00;66.30;;;;;;5120299;27;43491;-68
2022/12/07 09:13:11;;;;;;;5.13;4.63;;;17.00;66.30;;;;;;5114279;27;43977;-72
2022/12/07 09:15:39;;;;;;;5.17;4.67;;;17.00;66.30;;;;;;5123668;27;43932;-69
2022/12/07 09:18:07;;;;;;;6.57;5.37;;;17.00;66.40;;;;;;5134650;27;43402;-70
2022/12/07 09:20:35;;;;;;;5.67;5.17;;;16.90;66.50;;;;;;5138728;27;43423;-70
2022/12/07 09:23:03;;;;;;;5.80;5.20;;;16.90;66.40;;;;;;5135314;27;43826;-70
2022/12/07 09:25:32;;;;;;;5.47;5.07;;;16.90;66.40;;;;;;5125582;27;43885;-71
2022/12/07 09:28:00;;;;;;;5.37;4.97;;;17.00;66.40;;;;;;5116218;27;43864;-69
2022/12/07 09:30:28;;;;;;;6.20;5.60;;;16.90;66.40;;;;;;5122899;27;43416;-70
2022/12/07 09:32:56;;;;;;;5.80;5.30;;;16.90;66.40;;;;;;5131818;27;43448;-69
2022/12/07 09:35:24;;;;;;;5.83;5.43;;;16.90;66.50;;;;;;5134937;27;43783;-68
2022/12/07 09:37:52;;;;;;;5.60;5.13;;;16.90;66.60;;;;;;5136267;27;43493;-69
2022/12/07 09:40:21;;;;;;;5.63;5.13;;;17.00;66.40;;;;;;5142157;27;43410;-70
2022/12/07 09:42:52;;;;;;;5.60;5.10;;;17.10;66.00;;;;;;5132146;27;43359;-70
2022/12/07 09:45:21;;;;;;;5.90;5.50;;;17.20;65.60;;;;;;5130976;27;43599;-68
2022/12/07 09:47:49;;;;;;;5.47;5.10;;;17.20;65.70;;;;;;5120361;27;44868;-70
2022/12/07 09:50:18;;;;;;;6.40;5.93;;;17.10;65.70;;;;;;5114476;27;43560;-69
2022/12/07 09:52:47;;;;;;;5.57;5.17;;;17.10;66.00;;;;;;5118119;27;43517;-69
2022/12/07 09:55:16;;;;;;;6.00;5.50;;;17.10;65.90;;;;;;5126611;27;44329;-70
2022/12/07 09:57:44;;;;;;;6.20;5.70;;;17.10;65.90;;;;;;5104000;27;43453;-70
2022/12/07 10:00:15;;;;;;;6.23;5.70;;;17.00;65.80;;;;;;5120743;27;43456;-71
2022/12/07 10:02:45;;;;;;;6.10;5.60;;;17.00;66.00;;;;;;5124014;27;43461;-70
2022/12/07 10:05:15;;;;;;;5.87;5.47;;;17.00;66.10;;;;;;5133060;27;45835;-71
2022/12/07 10:07:50;;;;;;;5.33;5.03;;;17.00;66.40;;;;;;5136701;27;43471;-69
2022/12/07 10:10:21;;;;;;;5.53;5.13;;;17.00;66.30;;;;;;5132809;27;43443;-69
2022/12/07 10:13:02;;;;;;;5.67;5.20;;;16.90;66.30;;;;;;5125292;27;43436;-68
2022/12/07 10:15:46;;;;;;;6.00;5.50;;;17.00;66.40;;;;;;5113485;27;43742;-69
2022/12/07 10:18:28;;;;;;;5.67;5.37;;;17.00;66.40;;;;;;5125654;27;43477;-71
2022/12/07 10:21:04;;;;;;;5.57;5.17;;;16.90;66.30;;;;;;5132005;27;43496;-69
2022/12/07 10:23:32;;;;;;;5.73;5.30;;;16.90;66.50;;;;;;5131636;27;43485;-69
2022/12/07 10:26:00;;;;;;;6.23;5.77;;;16.90;66.70;;;;;;5132328;27;45448;-72
2022/12/07 10:28:35;;;;;;;5.93;5.53;;;17.00;66.40;;;;;;5135081;27;43460;-69
2022/12/07 10:31:16;;;;;;;5.93;5.53;;;17.10;66.10;;;;;;5134889;27;43487;-69
2022/12/07 10:33:50;;;;;;;6.00;5.50;;;17.10;66.00;;;;;;5119461;27;43533;-70
2022/12/07 10:36:20;;;;;;;6.17;5.77;;;17.10;66.10;;;;;;5120957;27;43599;-70
2022/12/07 10:38:49;;;;;;;5.47;5.17;;;17.00;66.00;;;;;;5130148;27;43467;-69
2022/12/07 10:41:17;;;;;;;5.33;5.03;;;17.00;66.20;;;;;;5133813;27;43412;-72
2022/12/07 10:43:52;;;;;;;5.50;5.10;;;17.00;66.10;;;;;;5109245;27;43612;-69
2022/12/07 10:46:43;;;;;;;5.67;5.20;;;17.00;66.10;;;;;;5116029;27;46248;-70
2022/12/07 10:49:53;;;;;;;5.50;5.10;;;17.00;66.30;;;;;;5115635;27;43456;-72
2022/12/07 10:52:31;;;;;;;5.57;5.27;;;17.00;66.20;;;;;;5116229;27;43506;-69
2022/12/07 10:55:08;;;;;;;4.83;4.60;;;17.00;66.30;;;;;;5110851;27;43521;-69
2022/12/07 10:57:42;;;;;;;5.93;5.53;;;17.00;66.60;;;;;;5114605;27;44108;-70
2022/12/07 11:00:14;;;;;;;5.53;5.13;;;17.00;66.60;;;;;;5127959;27;43467;-69
2022/12/07 11:03:24;;;;;;;5.10;4.90;;;17.10;66.20;;;;;;5127444;27;43438;-71
2022/12/07 11:05:55;;;;;;;5.33;5.03;;;17.10;65.70;;;;;;5128567;27;43625;-71
2022/12/07 11:08:34;;;;;;;5.73;5.33;;;17.10;65.70;;;;;;5141848;27;43609;-70
2022/12/07 11:11:06;;;;;;;4.77;4.57;;;17.10;65.80;;;;;;5139605;27;44301;-71
2022/12/07 11:13:38;;;;;;;5.77;5.37;;;17.10;66.10;;;;;;5125992;27;43449;-71
2022/12/07 11:16:14;;;;;;;4.97;4.77;;;17.10;66.00;;;;;;5128432;27;43606;-69
2022/12/07 11:18:47;;;;;;;5.20;4.90;;;17.10;66.10;;;;;;5112989;27;43952;-71
2022/12/07 11:21:18;;;;;;;5.53;5.23;;;17.00;66.00;;;;;;5111814;27;43465;-69
2022/12/07 11:23:49;;;;;;;5.30;5.00;;;17.00;66.10;;;;;;5121339;27;43483;-74
2022/12/07 11:26:24;;;;;;;5.37;5.07;;;17.00;66.20;;;;;;5126613;27;43461;-70
2022/12/07 11:29:06;;;;;;;5.23;4.93;;;17.00;66.20;;;;;;5118976;27;43596;-71
2022/12/07 11:31:37;;;;;;;5.83;5.43;;;17.00;66.10;;;;;;5120687;27;45055;-73
2022/12/07 11:34:08;;;;;;;6.37;5.97;;;17.00;65.90;;;;;;5121142;27;43411;-69
2022/12/07 11:36:38;;;;;;;5.60;5.30;;;17.00;66.00;;;;;;5138816;27;43362;-69
2022/12/07 11:39:24;;;;;;;5.93;5.53;;;17.00;65.90;;;;;;5136646;27;43590;-69
2022/12/07 11:41:53;;;;;;;5.70;5.30;;;16.90;65.90;;;;;;5138107;27;43561;-68
2022/12/07 11:44:27;;;;;;;5.73;5.43;;;17.00;66.20;;;;;;5124135;27;43446;-71
2022/12/07 11:46:56;;;;;;;6.10;5.73;;;17.00;66.50;;;;;;5118938;27;44470;-70
2022/12/07 11:49:28;;;;;;;6.13;5.70;;;17.00;66.10;;;;;;5117136;27;43935;-70
2022/12/07 11:51:58;;;;;;;5.73;5.33;;;17.10;65.80;;;;;;5121340;27;44670;-69
2022/12/07 11:54:27;;;;;;;5.97;5.60;;;17.10;65.90;;;;;;5133567;27;43417;-69
2022/12/07 11:56:55;;;;;;;5.70;5.30;;;17.10;65.80;;;;;;5136785;27;43376;-69
2022/12/07 11:59:26;;;;;;;5.83;5.43;;;17.10;65.80;;;;;;5135309;27;43593;-70
2022/12/07 12:01:56;;;;;;;6.30;5.80;;;17.00;65.90;;;;;;5130606;27;44575;-69
2022/12/07 12:04:32;;;;;;;5.77;5.37;;;17.00;65.80;;;;;;5133416;27;43256;-71
2022/12/07 12:07:00;;;;;;;6.10;5.70;;;17.00;65.80;;;;;;5137346;27;43463;-68
2022/12/07 12:09:50;;;;;;;5.90;5.50;;;17.00;65.80;;;;;;5135005;27;43843;-70
2022/12/07 12:12:33;;;;;;;6.90;6.30;;;17.00;65.80;;;;;;5138808;27;43686;-68
2022/12/07 12:15:28;;;;;;;6.27;5.77;;;17.00;65.90;;;;;;5134468;27;43369;-69
2022/12/07 12:18:06;;;;;;;6.53;5.93;;;17.00;66.30;;;;;;5132684;27;43401;-69
2022/12/07 12:20:37;;;;;;;6.37;5.90;;;17.00;66.30;;;;;;5141386;27;44486;-69
2022/12/07 12:23:07;;;;;;;6.63;6.10;;;17.10;65.70;;;;;;5125985;27;43390;-69
2022/12/07 12:25:38;;;;;;;6.30;5.80;;;17.10;65.60;;;;;;5129632;27;43958;-70
2022/12/07 12:28:06;;;;;;;7.27;6.67;;;17.10;65.70;;;;;;5130217;27;43493;-69
2022/12/07 12:30:35;;;;;;;6.17;5.87;;;17.10;65.80;;;;;;5136221;27;43728;-70
2022/12/07 12:33:13;;;;;;;6.53;5.93;;;17.10;65.90;;;;;;5128018;27;43424;-70
2022/12/07 12:35:42;;;;;;;5.90;5.50;;;17.00;65.80;;;;;;5134632;27;43461;-73
2022/12/07 12:38:28;;;;;;;6.50;6.00;;;17.10;66.00;;;;;;5123830;27;43507;-70
2022/12/07 12:40:56;;;;;;;6.50;6.00;;;17.00;66.00;;;;;;5120706;27;43872;-69
2022/12/07 12:43:49;;;;;;;6.80;6.23;;;17.00;66.10;;;;;;5115426;27;43952;-71
2022/12/07 12:46:51;;;;;;;6.70;6.13;;;17.00;66.10;;;;;;5115799;27;43625;-69
2022/12/07 12:49:36;;;;;;;6.80;6.20;;;17.00;66.40;;;;;;5114473;27;43896;-71
2022/12/07 12:52:50;;;;;;;6.60;6.00;;;17.00;66.40;;;;;;5120357;27;43938;-73
2022/12/07 12:55:30;;;;;;;6.57;6.07;;;17.10;66.00;;;;;;5121323;27;43469;-71
2022/12/07 12:58:34;;;;;;;6.27;5.87;;;17.10;65.70;;;;;;5126010;27;43463;-70
2022/12/07 13:01:45;;;;;;;5.43;5.13;;;17.10;65.80;;;;;;5118648;27;43568;-70
2022/12/07 13:04:40;;;;;;;6.37;5.87;;;17.10;65.90;;;;;;5114212;27;43851;-71
2022/12/07 13:07:15;;;;;;;6.43;5.93;;;17.00;65.90;;;;;;5110558;27;43481;-68
2022/12/07 13:09:44;;;;;;;6.60;6.10;;;17.10;66.10;;;;;;5120447;27;43419;-70
2022/12/07 13:12:16;;;;;;;6.20;5.70;;;17.10;66.10;;;;;;5125806;27;43631;-72